createdAt,value
2019-04-16T00:04:31.185Z,8.20
2019-04-16T00:09:39.540Z,8.10
2019-04-16T00:14:47.949Z,7.70
2019-04-16T00:19:51.557Z,7.60
2019-04-16T00:24:55.728Z,7.70
2019-04-16T00:30:04.117Z,7.60
2019-04-16T00:35:05.980Z,7.60
2019-04-16T00:40:09.922Z,7.50
2019-04-16T00:45:13.748Z,7.40
2019-04-16T00:50:17.686Z,7.50
2019-04-16T00:55:21.417Z,7.40
2019-04-16T01:00:27.707Z,7.40
2019-04-16T01:05:35.031Z,7.30
2019-04-16T01:10:36.210Z,7.30
2019-04-16T01:15:39.797Z,7.20
2019-04-16T01:20:44.048Z,7.10
2019-04-16T01:25:47.653Z,7.10
2019-04-16T01:30:53.373Z,7.10
2019-04-16T01:36:11.108Z,7.20
2019-04-16T01:41:16.411Z,7.10
2019-04-16T01:46:20.001Z,6.90
2019-04-16T01:51:23.658Z,7.00
2019-04-16T01:56:28.814Z,7.30
2019-04-16T02:01:33.102Z,7.20
2019-04-16T02:06:37.137Z,7.00
2019-04-16T02:11:41.465Z,7.10
2019-04-16T02:16:46.097Z,7.00
2019-04-16T02:21:50.045Z,7.00
2019-04-16T02:26:54.843Z,6.90
2019-04-16T02:31:59.179Z,6.90
2019-04-16T02:37:03.494Z,6.70
2019-04-16T02:42:07.309Z,6.60
2019-04-16T02:47:11.293Z,6.60
2019-04-16T02:52:34.381Z,6.90
2019-04-16T02:57:39.943Z,6.90
2019-04-16T03:02:48.136Z,6.70
2019-04-16T03:07:51.856Z,6.80
2019-04-16T03:12:55.898Z,6.80
2019-04-16T03:17:59.487Z,6.90
2019-04-16T03:23:06.111Z,7.10
2019-04-16T03:28:08.938Z,7.10
2019-04-16T03:33:14.803Z,7.00
2019-04-16T03:38:18.014Z,6.90
2019-04-16T03:43:21.623Z,7.00
2019-04-16T03:48:25.290Z,6.90
2019-04-16T03:53:29.338Z,6.70
2019-04-16T03:58:35.568Z,6.80
2019-04-16T04:03:38.672Z,6.80
2019-04-16T04:08:42.327Z,6.90
2019-04-16T04:13:49.680Z,6.80
2019-04-16T04:18:51.236Z,6.80
2019-04-16T04:23:57.508Z,6.90
2019-04-16T04:29:00.072Z,6.90
2019-04-16T04:34:04.144Z,7.00
2019-04-16T04:39:09.951Z,7.20
2019-04-16T04:44:12.991Z,7.00
2019-04-16T04:49:16.657Z,7.00
2019-04-16T04:54:22.353Z,6.80
2019-04-16T04:59:26.137Z,6.80
2019-04-16T05:04:31.441Z,6.60
2019-04-16T05:09:36.495Z,6.50
2019-04-16T05:14:42.063Z,6.70
2019-04-16T05:19:45.654Z,6.60
2019-04-16T05:24:49.248Z,6.60
2019-04-16T05:29:52.833Z,6.70
2019-04-16T05:34:56.459Z,6.80
2019-04-16T05:40:00.073Z,7.00
2019-04-16T05:45:06.297Z,7.10
2019-04-16T05:50:10.220Z,7.20
2019-04-16T05:55:19.362Z,7.30
2019-04-16T06:00:27.576Z,7.60
2019-04-16T06:05:31.252Z,7.60
2019-04-16T06:10:34.984Z,7.70
2019-04-16T06:15:56.737Z,8.00
2019-04-16T06:21:07.961Z,8.30
2019-04-16T06:26:22.124Z,8.60
2019-04-16T06:31:45.903Z,8.90
2019-04-16T06:36:56.858Z,9.30
2019-04-16T06:42:02.246Z,9.60
2019-04-16T06:47:11.116Z,10.10
2019-04-16T06:52:33.894Z,10.50
2019-04-16T06:57:45.299Z,10.60
2019-04-16T07:03:02.136Z,10.70
2019-04-16T07:07:59.997Z,11.10
2019-04-16T07:13:03.765Z,11.50
2019-04-16T07:18:07.353Z,12.00
2019-04-16T07:23:10.985Z,12.50
2019-04-16T07:28:32.679Z,12.90
2019-04-16T07:33:40.809Z,13.30
2019-04-16T07:38:52.077Z,13.80
2019-04-16T07:44:12.308Z,14.00
2019-04-16T07:49:33.553Z,14.40
2019-04-16T07:54:47.795Z,14.40
2019-04-16T07:59:51.389Z,14.60
2019-04-16T08:04:55.005Z,14.50
2019-04-16T08:10:02.051Z,14.60
2019-04-16T08:15:13.771Z,14.40
2019-04-16T08:20:10.156Z,14.50
2019-04-16T08:25:14.349Z,14.40
2019-04-16T08:30:18.008Z,14.70
2019-04-16T08:35:21.982Z,14.70
2019-04-16T08:40:25.649Z,14.90
2019-04-16T08:45:29.312Z,15.10
2019-04-16T08:50:32.914Z,15.10
2019-04-16T08:55:36.608Z,14.90
2019-04-16T09:00:45.907Z,15.20
2019-04-16T09:05:47.036Z,15.60
2019-04-16T09:10:50.712Z,15.30
2019-04-16T09:15:54.505Z,15.40
2019-04-16T09:20:58.172Z,15.60
2019-04-16T09:26:15.413Z,15.70
2019-04-16T09:31:31.116Z,16.00
2019-04-16T09:36:52.804Z,16.30
2019-04-16T09:41:56.478Z,16.40
2019-04-16T09:47:00.624Z,16.20
2019-04-16T09:52:04.252Z,16.80
2019-04-16T09:57:07.841Z,16.90
2019-04-16T10:02:13.147Z,17.20
2019-04-16T10:07:16.811Z,16.90
2019-04-16T10:12:20.471Z,17.10
2019-04-16T10:17:24.467Z,17.80
2019-04-16T10:22:29.533Z,18.00
2019-04-16T10:27:34.771Z,17.60
2019-04-16T10:32:38.451Z,17.70
2019-04-16T10:37:42.058Z,18.10
2019-04-16T10:43:03.703Z,18.70
2019-04-16T10:48:17.950Z,19.10
2019-04-16T10:53:39.447Z,19.70
2019-04-16T10:58:47.385Z,19.00
2019-04-16T11:03:55.553Z,18.70
2019-04-16T11:08:59.204Z,18.50
2019-04-16T11:14:02.871Z,19.00
2019-04-16T11:19:07.982Z,18.80
2019-04-16T11:24:11.821Z,19.30
2019-04-16T11:29:15.452Z,18.80
2019-04-16T11:34:19.126Z,18.90
2019-04-16T11:39:23.133Z,19.30
2019-04-16T11:44:27.145Z,19.10
2019-04-16T11:49:30.709Z,18.90
2019-04-16T11:54:34.383Z,18.80
2019-04-16T11:59:38.386Z,19.10
2019-04-16T12:04:43.822Z,18.60
2019-04-16T12:09:58.557Z,19.30
2019-04-16T12:15:03.936Z,20.50
2019-04-16T12:20:09.715Z,20.40
2019-04-16T12:25:31.804Z,19.40
2019-04-16T12:30:46.181Z,18.80
2019-04-16T12:35:57.959Z,18.90
2019-04-16T12:41:20.158Z,19.10
2019-04-16T12:46:25.528Z,18.80
2019-04-16T12:51:47.145Z,18.60
2019-04-16T13:02:24.887Z,18.60
2019-04-16T13:07:30.341Z,18.30
2019-04-16T13:12:51.747Z,18.50
2019-04-16T13:18:02.722Z,18.80
2019-04-16T13:23:10.410Z,18.90
2019-04-16T13:28:14.061Z,19.00
2019-04-16T13:33:17.729Z,18.70
2019-04-16T13:38:23.092Z,18.40
2019-04-16T13:43:46.726Z,18.30
2019-04-16T13:48:59.859Z,18.30
2019-04-16T13:54:08.669Z,18.00
2019-04-16T13:59:31.117Z,18.20
2019-04-16T14:04:36.957Z,18.00
2019-04-16T14:09:39.829Z,18.00
2019-04-16T14:14:43.641Z,18.10
2019-04-16T14:19:47.398Z,18.10
2019-04-16T14:24:51.141Z,18.00
2019-04-16T14:29:54.814Z,17.90
2019-04-16T14:35:00.807Z,17.80
2019-04-16T14:40:08.608Z,17.70
2019-04-16T14:45:19.854Z,17.70
2019-04-16T14:50:24.467Z,17.60
2019-04-16T14:55:32.542Z,17.50
2019-04-16T15:00:43.888Z,17.30
2019-04-16T15:06:00.751Z,17.30
2019-04-16T15:11:18.685Z,17.20
2019-04-16T15:16:26.976Z,17.10
2019-04-16T15:21:32.365Z,16.80
2019-04-16T15:26:40.664Z,16.90
2019-04-16T15:31:55.518Z,17.00
2019-04-16T15:37:06.784Z,16.70
2019-04-16T15:42:28.569Z,16.80
2019-04-16T15:47:33.910Z,16.60
2019-04-16T15:52:46.440Z,16.40
2019-04-16T15:58:09.731Z,16.10
2019-04-16T16:03:31.726Z,16.00
2019-04-16T16:08:37.432Z,15.80
2019-04-16T16:13:41.094Z,15.60
2019-04-16T16:18:44.774Z,15.50
2019-04-16T16:23:48.701Z,15.50
2019-04-16T16:28:52.450Z,15.20
2019-04-16T16:33:56.442Z,15.10
2019-04-16T16:39:00.015Z,15.00
2019-04-16T16:44:04.009Z,14.40
2019-04-16T16:49:07.754Z,14.20
2019-04-16T16:54:19.133Z,14.20
2019-04-16T16:59:24.372Z,14.30
2019-04-16T17:04:29.744Z,14.30
2019-04-16T17:09:34.353Z,14.10
2019-04-16T17:14:38.427Z,14.00
2019-04-16T17:19:42.162Z,14.00
2019-04-16T17:24:45.827Z,14.00
2019-04-16T17:29:50.885Z,14.00
2019-04-16T17:34:54.640Z,13.90
2019-04-16T17:40:00.262Z,13.90
2019-04-16T17:45:23.585Z,13.80
2019-04-16T17:50:29.280Z,13.80
2019-04-16T17:55:40.340Z,13.60
2019-04-16T18:01:01.187Z,13.40
2019-04-16T18:06:06.736Z,13.00
2019-04-16T18:11:17.943Z,12.80
2019-04-16T18:16:35.602Z,12.80
2019-04-16T18:21:41.050Z,12.80
2019-04-16T18:26:46.521Z,12.90
2019-04-16T18:31:52.488Z,12.80
2019-04-16T18:37:01.671Z,12.60
2019-04-16T18:42:07.160Z,12.60
2019-04-16T18:47:18.222Z,12.60
2019-04-16T18:52:22.083Z,12.40
2019-04-16T18:57:25.907Z,12.50
2019-04-16T19:02:30.923Z,12.50
2019-04-16T19:07:34.597Z,12.30
2019-04-16T19:12:38.595Z,12.40
2019-04-16T19:17:42.679Z,12.40
2019-04-16T19:22:46.497Z,12.40
2019-04-16T19:27:51.540Z,12.40
2019-04-16T19:33:00.171Z,12.40
2019-04-16T19:38:02.318Z,12.40
2019-04-16T19:43:05.892Z,12.30
2019-04-16T19:48:09.603Z,12.20
2019-04-16T19:53:14.958Z,12.10
2019-04-16T19:58:18.754Z,12.00
2019-04-16T20:03:22.539Z,12.00
2019-04-16T20:08:26.210Z,12.00
2019-04-16T20:13:30.244Z,11.90
2019-04-16T20:18:49.934Z,11.80
2019-04-16T20:23:39.910Z,11.90
2019-04-16T20:28:45.369Z,11.80
2019-04-16T20:33:48.889Z,11.60
2019-04-16T20:38:52.560Z,11.60
2019-04-16T20:43:56.193Z,11.50
2019-04-16T20:49:09.104Z,11.40
2019-04-16T20:54:05.375Z,11.50
2019-04-16T20:59:08.973Z,11.40
2019-04-16T21:04:13.096Z,11.50
2019-04-16T21:09:16.699Z,11.60
2019-04-16T21:14:21.781Z,11.70
2019-04-16T21:19:27.876Z,11.60
2019-04-16T21:24:31.918Z,11.60
2019-04-16T21:29:36.694Z,11.60
2019-04-16T21:34:48.357Z,11.60
2019-04-16T21:39:53.998Z,11.40
2019-04-16T21:44:58.105Z,11.30
2019-04-16T21:50:02.473Z,11.30
2019-04-16T21:55:07.329Z,11.30
2019-04-16T22:00:23.461Z,11.20
2019-04-16T22:05:27.218Z,11.30
2019-04-16T22:10:30.812Z,11.30
2019-04-16T22:15:34.694Z,11.30
2019-04-16T22:20:38.439Z,11.00
2019-04-16T22:25:42.046Z,11.10
2019-04-16T22:30:45.771Z,11.00
2019-04-16T22:35:51.049Z,10.80
2019-04-16T22:40:59.501Z,10.70
2019-04-16T22:46:04.878Z,10.80
2019-04-16T22:51:10.404Z,10.90
2019-04-16T22:56:13.785Z,11.00
2019-04-16T23:01:19.187Z,10.90
2019-04-16T23:06:23.211Z,10.80
2019-04-16T23:11:26.950Z,10.80
2019-04-16T23:16:30.549Z,11.00
2019-04-16T23:21:34.582Z,11.00
2019-04-16T23:26:38.241Z,11.10
2019-04-16T23:31:41.919Z,11.10
2019-04-16T23:36:48.617Z,11.00
2019-04-16T23:41:51.003Z,11.10
2019-04-16T23:46:59.049Z,11.00
2019-04-16T23:52:13.294Z,10.90
2019-04-16T23:57:27.347Z,10.90
